createdAt,value
2024-04-04T00:00:13.541Z,100
2024-04-04T00:05:15.119Z,100
2024-04-04T00:10:16.586Z,100
2024-04-04T00:15:18.364Z,100
2024-04-04T00:20:20.383Z,100
2024-04-04T00:25:22.561Z,100
2024-04-04T00:30:24.026Z,100
2024-04-04T00:35:25.666Z,100
2024-04-04T00:40:27.098Z,100
2024-04-04T00:45:28.694Z,100
2024-04-04T00:50:30.170Z,100
2024-04-04T00:55:31.787Z,100
2024-04-04T01:00:41.100Z,100
2024-04-04T01:05:34.425Z,100
2024-04-04T01:10:35.651Z,100
2024-04-04T01:15:37.799Z,100
2024-04-04T01:20:39.921Z,100
2024-04-04T01:25:41.690Z,100
2024-04-04T01:30:43.026Z,100
2024-04-04T01:35:44.225Z,100
2024-04-04T01:40:45.482Z,100
2024-04-04T01:45:46.906Z,100
2024-04-04T01:50:48.277Z,100
2024-04-04T01:55:49.440Z,100
2024-04-04T02:00:51.169Z,100
2024-04-04T02:05:52.961Z,100
2024-04-04T02:10:54.808Z,100
2024-04-04T02:15:56.858Z,100
2024-04-04T02:20:58.888Z,100
2024-04-04T02:26:00.883Z,100
2024-04-04T02:31:02.629Z,100
2024-04-04T02:36:14.182Z,100
2024-04-04T02:41:05.403Z,100
2024-04-04T02:46:15.474Z,100
2024-04-04T02:51:09.229Z,100
2024-04-04T02:56:10.783Z,100
2024-04-04T03:01:12.784Z,100
2024-04-04T03:06:14.145Z,100
2024-04-04T03:11:15.584Z,100
2024-04-04T03:16:16.946Z,100
2024-04-04T03:21:19.122Z,100
2024-04-04T03:26:21.220Z,100
2024-04-04T03:31:22.576Z,100
2024-04-04T03:36:24.188Z,100
2024-04-04T03:41:26.292Z,100
2024-04-04T03:46:27.723Z,100
2024-04-04T03:51:29.178Z,100
2024-04-04T03:56:31.001Z,100
2024-04-04T04:01:32.758Z,100
2024-04-04T04:06:34.015Z,100
2024-04-04T04:11:35.881Z,100
2024-04-04T04:16:37.895Z,100
2024-04-04T04:21:39.727Z,100
2024-04-04T04:26:41.571Z,100
2024-04-04T04:31:43.000Z,100
2024-04-04T04:36:44.630Z,100
2024-04-04T04:41:46.479Z,100
2024-04-04T04:46:48.207Z,100
2024-04-04T04:51:50.048Z,100
2024-04-04T04:56:51.858Z,100
2024-04-04T05:01:53.335Z,100
2024-04-04T05:06:55.180Z,100
2024-04-04T05:11:56.733Z,100
2024-04-04T05:16:58.054Z,100
2024-04-04T05:22:00.043Z,100
2024-04-04T05:27:01.290Z,100
2024-04-04T05:32:03.062Z,100
2024-04-04T05:37:04.647Z,100
2024-04-04T05:42:06.813Z,100
2024-04-04T05:47:08.102Z,100
2024-04-04T05:52:09.692Z,100
2024-04-04T05:57:10.929Z,100
2024-04-04T06:02:12.556Z,100
2024-04-04T06:07:14.051Z,100
2024-04-04T06:12:15.364Z,100
2024-04-04T06:17:16.847Z,100
2024-04-04T06:22:18.159Z,100
2024-04-04T06:27:19.392Z,100
2024-04-04T06:32:21.224Z,100
2024-04-04T06:37:22.467Z,100
2024-04-04T06:42:24.609Z,100
2024-04-04T06:47:26.116Z,100
2024-04-04T06:52:28.200Z,100
2024-04-04T06:57:30.366Z,100
2024-04-04T07:02:32.324Z,100
2024-04-04T07:07:34.140Z,100
2024-04-04T07:12:35.459Z,100
2024-04-04T07:17:36.724Z,100
2024-04-04T07:22:38.289Z,100
2024-04-04T07:27:40.148Z,100
2024-04-04T07:32:42.334Z,100
2024-04-04T07:37:44.492Z,100
2024-04-04T07:42:45.837Z,100
2024-04-04T07:47:47.642Z,100
2024-04-04T07:52:49.552Z,100
2024-04-04T07:57:50.746Z,100
2024-04-04T08:02:52.912Z,100
2024-04-04T08:07:54.228Z,100
2024-04-04T08:12:56.144Z,100
2024-04-04T08:17:57.893Z,100
2024-04-04T08:22:59.744Z,100
2024-04-04T08:28:01.290Z,100
2024-04-04T08:33:02.591Z,100
2024-04-04T08:38:04.314Z,100
2024-04-04T08:43:05.636Z,100
2024-04-04T08:48:06.813Z,100
2024-04-04T08:53:08.917Z,89
2024-04-04T08:58:10.930Z,84
2024-04-04T09:03:12.178Z,83
2024-04-04T09:08:14.095Z,75
2024-04-04T09:13:15.365Z,69
2024-04-04T09:18:17.112Z,68
2024-04-04T09:23:18.998Z,68
2024-04-04T09:28:20.892Z,64
2024-04-04T09:33:22.333Z,63
2024-04-04T09:38:23.856Z,58
2024-04-04T09:43:25.150Z,58
2024-04-04T09:48:32.612Z,59
2024-04-04T09:53:28.655Z,60
2024-04-04T09:58:30.608Z,60
2024-04-04T10:03:31.965Z,58
2024-04-04T10:08:33.234Z,61
2024-04-04T10:13:34.599Z,57
2024-04-04T10:18:36.748Z,56
2024-04-04T10:23:38.653Z,55
2024-04-04T10:28:40.375Z,56
2024-04-04T10:33:41.684Z,53
2024-04-04T10:38:43.377Z,55
2024-04-04T10:43:45.306Z,55
2024-04-04T10:48:47.471Z,53
2024-04-04T10:53:48.972Z,53
2024-04-04T10:58:52.012Z,55
2024-04-04T11:03:52.149Z,52
2024-04-04T11:08:53.989Z,54
2024-04-04T11:13:56.045Z,51
2024-04-04T11:18:58.173Z,51
2024-04-04T11:23:59.373Z,50
2024-04-04T11:29:01.048Z,51
2024-04-04T11:34:02.298Z,49
2024-04-04T11:39:03.607Z,50
2024-04-04T11:44:05.194Z,50
2024-04-04T11:49:07.106Z,51
2024-04-04T11:49:13.520Z,51
2024-04-04T11:54:15.112Z,50
2024-04-04T11:59:17.181Z,50
2024-04-04T12:04:19.415Z,51
2024-04-04T12:09:21.096Z,51
2024-04-04T12:14:23.180Z,52
2024-04-04T12:19:24.656Z,52
2024-04-04T12:24:26.753Z,52
2024-04-04T12:29:28.885Z,52
2024-04-04T12:34:30.487Z,52
2024-04-04T12:39:31.851Z,52
2024-04-04T12:44:33.505Z,53
2024-04-04T12:49:35.545Z,53
2024-04-04T12:54:37.688Z,54
2024-04-04T12:59:39.314Z,53
2024-04-04T13:04:40.591Z,54
2024-04-04T13:09:42.528Z,55
2024-04-04T13:14:44.544Z,55
2024-04-04T13:19:46.148Z,56
2024-04-04T13:24:47.399Z,56
2024-04-04T13:29:49.238Z,56
2024-04-04T13:34:50.563Z,57
2024-04-04T13:39:51.806Z,57
2024-04-04T13:44:53.787Z,58
2024-04-04T13:49:55.787Z,58
2024-04-04T13:54:57.571Z,59
2024-04-04T13:59:58.928Z,60
2024-04-04T14:05:00.458Z,58
2024-04-04T14:10:01.960Z,59
2024-04-04T14:15:03.869Z,59
2024-04-04T14:20:05.884Z,57
2024-04-04T14:25:08.863Z,58
2024-04-04T14:30:09.168Z,59
2024-04-04T14:35:10.994Z,58
2024-04-04T14:40:12.340Z,58
2024-04-04T14:45:14.433Z,60
2024-04-04T14:50:15.603Z,59
2024-04-04T14:55:17.349Z,59
2024-04-04T15:00:19.080Z,59
2024-04-04T15:05:20.538Z,58
2024-04-04T15:10:22.042Z,59
2024-04-04T15:15:23.920Z,59
2024-04-04T15:20:25.157Z,59
2024-04-04T15:25:28.997Z,62
2024-04-04T15:30:29.148Z,64
2024-04-04T15:35:30.802Z,59
2024-04-04T15:40:32.401Z,63
2024-04-04T15:45:34.473Z,64
2024-04-04T15:50:36.486Z,65
2024-04-04T15:55:38.663Z,68
2024-04-04T16:00:40.484Z,69
2024-04-04T16:05:41.879Z,70
2024-04-04T16:10:43.774Z,78
2024-04-04T16:15:45.987Z,81
2024-04-04T16:20:47.581Z,87
2024-04-04T16:25:49.033Z,100
2024-04-04T16:30:50.544Z,100
2024-04-04T16:35:52.377Z,100
2024-04-04T16:40:54.520Z,100
2024-04-04T16:45:56.456Z,100
2024-04-04T16:50:58.190Z,100
2024-04-04T16:56:00.119Z,100
2024-04-04T17:01:01.683Z,100
2024-04-04T17:06:02.943Z,100
2024-04-04T17:11:04.859Z,100
2024-04-04T17:16:06.736Z,100
2024-04-04T17:21:08.646Z,100
2024-04-04T17:26:09.948Z,100
2024-04-04T17:31:12.107Z,100
2024-04-04T17:36:14.291Z,100
2024-04-04T17:41:15.793Z,100
2024-04-04T17:46:17.080Z,100
2024-04-04T17:51:18.960Z,100
2024-04-04T17:56:20.711Z,100
2024-04-04T18:01:22.258Z,100
2024-04-04T18:06:24.132Z,100
2024-04-04T18:11:25.364Z,100
2024-04-04T18:16:26.886Z,100
2024-04-04T18:21:28.267Z,100
2024-04-04T18:26:30.238Z,100
2024-04-04T18:31:32.391Z,100
2024-04-04T18:36:34.083Z,100
2024-04-04T18:41:35.543Z,100
2024-04-04T18:46:37.128Z,100
2024-04-04T18:51:38.857Z,100
2024-04-04T18:56:40.243Z,100
2024-04-04T19:01:42.269Z,100
2024-04-04T19:06:52.742Z,100
2024-04-04T19:11:45.442Z,100
2024-04-04T19:16:47.166Z,100
2024-04-04T19:21:48.419Z,100
2024-04-04T19:26:49.723Z,100
2024-04-04T19:31:51.266Z,100
2024-04-04T19:36:53.102Z,100
2024-04-04T19:41:54.065Z,100
2024-04-04T19:46:55.684Z,100
2024-04-04T19:51:57.217Z,100
2024-04-04T19:56:58.438Z,100
2024-04-04T20:01:59.744Z,100
2024-04-04T20:07:01.253Z,100
2024-04-04T20:12:02.764Z,100
2024-04-04T20:17:04.563Z,100
2024-04-04T20:22:06.206Z,100
2024-04-04T20:27:08.351Z,100
2024-04-04T20:32:09.853Z,100
2024-04-04T20:37:11.357Z,100
2024-04-04T20:42:13.373Z,100
2024-04-04T20:47:15.541Z,100
2024-04-04T20:52:16.805Z,100
2024-04-04T20:57:18.453Z,100
2024-04-04T21:02:19.699Z,100
2024-04-04T21:07:21.115Z,100
2024-04-04T21:12:22.875Z,100
2024-04-04T21:17:24.048Z,100
2024-04-04T21:22:26.057Z,100
2024-04-04T21:27:27.540Z,100
2024-04-04T21:32:28.942Z,100
2024-04-04T21:37:30.264Z,100
2024-04-04T21:42:31.712Z,100
2024-04-04T21:47:33.817Z,100
2024-04-04T21:52:35.269Z,100
2024-04-04T21:57:36.987Z,100
2024-04-04T22:02:39.126Z,100
2024-04-04T22:07:41.071Z,100
2024-04-04T22:12:42.317Z,100
2024-04-04T22:17:43.722Z,100
2024-04-04T22:22:45.651Z,100
2024-04-04T22:27:46.886Z,100
2024-04-04T22:32:49.058Z,100
2024-04-04T22:37:50.867Z,100
2024-04-04T22:42:52.591Z,100
2024-04-04T22:47:53.897Z,100
2024-04-04T22:52:56.085Z,100
2024-04-04T22:57:57.804Z,100
2024-04-04T23:02:59.874Z,100
2024-04-04T23:08:01.739Z,100
2024-04-04T23:13:03.128Z,100
2024-04-04T23:18:04.431Z,100
2024-04-04T23:23:06.096Z,100
2024-04-04T23:28:08.049Z,100
2024-04-04T23:33:09.678Z,100
2024-04-04T23:38:11.774Z,100
2024-04-04T23:43:13.484Z,100
2024-04-04T23:48:15.243Z,100
2024-04-04T23:53:16.908Z,100
2024-04-04T23:58:18.158Z,100
